Time;durP1;ratioP1;P1;durP2;ratioP2;P2;SDS_P1;SDS_P2;PMS_P1;PMS_P2;Temp;Humidity;BMP_temperature;BMP_pressure;BME280_temperature;BME280_humidity;BME280_pressure;Samples;Min_cycle;Max_cycle;Signal;HPM_P1;HPM_P2
2022/04/11 00:01:11;;;;;;;9.93;4.78;;;0.80;99.90;;;;;;4876934;29;20044;-81
2022/04/11 00:03:37;;;;;;;9.65;3.65;;;0.80;99.90;;;;;;4863761;29;20386;-81
2022/04/11 00:06:02;;;;;;;10.38;4.38;;;0.80;99.90;;;;;;4877620;29;20595;-81
2022/04/11 00:08:28;;;;;;;7.30;3.92;;;1.00;99.90;;;;;;4862320;29;20052;-80
2022/04/11 00:10:54;;;;;;;10.20;3.88;;;0.70;99.90;;;;;;4863047;29;20100;-81
2022/04/11 00:13:19;;;;;;;8.77;3.97;;;0.70;99.90;;;;;;4877824;29;20059;-81
2022/04/11 00:15:45;;;;;;;9.55;3.83;;;0.70;99.90;;;;;;4862057;29;20358;-81
2022/04/11 00:18:11;;;;;;;12.30;4.57;;;0.70;99.90;;;;;;4862269;29;20095;-81
2022/04/11 00:20:37;;;;;;;10.13;3.88;;;0.60;99.90;;;;;;4863207;29;20497;-82
2022/04/11 00:23:04;;;;;;;7.97;3.90;;;0.70;99.90;;;;;;4892941;29;20080;-81
2022/04/11 00:25:30;;;;;;;6.85;3.55;;;0.60;99.90;;;;;;4877607;29;20413;-81
2022/04/11 00:27:56;;;;;;;9.80;3.42;;;0.60;99.90;;;;;;4878543;29;20057;-81
2022/04/11 00:30:21;;;;;;;6.65;3.22;;;0.50;99.90;;;;;;4875475;29;20514;-81
2022/04/11 00:32:47;;;;;;;8.40;3.90;;;0.60;99.90;;;;;;4878091;29;20076;-81
2022/04/11 00:35:13;;;;;;;8.25;2.80;;;0.60;99.90;;;;;;4877055;29;20046;-81
2022/04/11 00:37:40;;;;;;;6.28;3.42;;;0.50;99.90;;;;;;4877127;29;20401;-81
2022/04/11 00:40:07;;;;;;;6.53;3.40;;;0.50;99.90;;;;;;4860828;29;20056;-81
2022/04/11 00:42:37;;;;;;;12.13;3.50;;;0.50;99.90;;;;;;4877845;29;20059;-81
2022/04/11 00:45:03;;;;;;;10.20;3.50;;;0.50;99.90;;;;;;4876269;29;20048;-81
2022/04/11 00:47:30;;;;;;;8.90;3.22;;;0.50;99.90;;;;;;4861801;29;20045;-82
2022/04/11 00:50:00;;;;;;;10.90;3.45;;;0.50;99.90;;;;;;4862175;29;20053;-82
2022/04/11 00:52:29;;;;;;;8.82;3.17;;;0.40;99.90;;;;;;4876649;29;20505;-81
2022/04/11 00:54:55;;;;;;;5.97;2.83;;;0.50;99.90;;;;;;4877807;29;20059;-82
2022/04/11 00:57:22;;;;;;;7.70;2.90;;;0.50;99.90;;;;;;4860973;29;20041;-81
2022/04/11 00:59:48;;;;;;;8.23;3.55;;;0.50;99.90;;;;;;4877026;29;20048;-82
2022/04/11 01:02:14;;;;;;;5.75;2.97;;;0.50;99.90;;;;;;4862000;29;20055;-81
2022/04/11 01:04:41;;;;;;;8.63;3.22;;;0.40;99.90;;;;;;4860751;29;20441;-82
2022/04/11 01:07:08;;;;;;;6.63;2.88;;;0.40;99.90;;;;;;4861782;29;20056;-81
2022/04/11 01:09:34;;;;;;;5.25;2.45;;;0.40;99.90;;;;;;4860275;29;20573;-82
2022/04/11 01:12:02;;;;;;;10.32;2.55;;;0.70;99.90;;;;;;4857658;29;20049;-82
2022/04/11 01:14:28;;;;;;;9.25;2.88;;;0.40;99.90;;;;;;4857491;29;20442;-82
2022/04/11 01:16:53;;;;;;;5.93;2.58;;;0.70;99.90;;;;;;4843539;29;20132;-82
2022/04/11 01:19:20;;;;;;;6.57;2.58;;;0.40;99.90;;;;;;4857407;29;20719;-82
2022/04/11 01:21:47;;;;;;;5.57;2.90;;;0.40;99.90;;;;;;4858566;29;20500;-82
2022/04/11 01:24:15;;;;;;;9.05;2.92;;;0.40;99.90;;;;;;4857762;29;20580;-81
2022/04/11 01:26:42;;;;;;;8.52;3.10;;;0.40;99.90;;;;;;4842480;29;20061;-81
2022/04/11 01:29:09;;;;;;;8.30;3.00;;;0.40;99.90;;;;;;4857544;29;20133;-81
2022/04/11 01:31:35;;;;;;;5.57;2.72;;;0.40;99.90;;;;;;4858656;29;20421;-82
2022/04/11 01:34:01;;;;;;;7.20;2.92;;;0.40;99.90;;;;;;4857719;29;20061;-81
2022/04/11 01:36:26;;;;;;;7.70;3.13;;;0.40;99.90;;;;;;4858290;29;20552;-81
2022/04/11 01:38:52;;;;;;;5.80;2.63;;;0.30;99.90;;;;;;4842569;29;20057;-82
2022/04/11 01:41:19;;;;;;;5.75;2.63;;;0.30;99.90;;;;;;4872780;29;20081;-81
2022/04/11 01:43:46;;;;;;;10.60;3.28;;;0.70;99.90;;;;;;4842840;29;20106;-82
2022/04/11 01:46:12;;;;;;;8.13;2.80;;;0.20;99.90;;;;;;4857552;29;20052;-81
2022/04/11 01:48:37;;;;;;;8.98;2.75;;;0.20;99.90;;;;;;4842071;29;20060;-81
2022/04/11 01:51:03;;;;;;;7.82;2.80;;;0.20;99.90;;;;;;4857160;29;20049;-81
2022/04/11 01:53:29;;;;;;;9.07;2.95;;;0.20;99.90;;;;;;4858106;29;20056;-81
2022/04/11 01:55:55;;;;;;;6.13;2.50;;;0.20;99.90;;;;;;4872341;29;20045;-81
2022/04/11 01:58:21;;;;;;;6.43;2.65;;;0.50;99.90;;;;;;4860826;29;20048;-81
2022/04/11 02:00:46;;;;;;;7.63;2.97;;;0.20;99.90;;;;;;4860301;29;20051;-82
2022/04/11 02:03:12;;;;;;;6.65;3.10;;;0.10;99.90;;;;;;4860984;29;20449;-81
2022/04/11 02:05:40;;;;;;;10.88;3.53;;;0.10;99.90;;;;;;4876644;29;20048;-81
2022/04/11 02:08:07;;;;;;;7.45;3.80;;;0.10;99.90;;;;;;4860410;29;20060;-81
2022/04/11 02:10:35;;;;;;;7.90;3.78;;;0.10;99.90;;;;;;4861067;29;20442;-81
2022/04/11 02:13:01;;;;;;;8.95;3.25;;;0.10;99.90;;;;;;4875843;29;20063;-81
2022/04/11 02:15:26;;;;;;;9.00;4.10;;;0.10;99.90;;;;;;4874794;29;20048;-81
2022/04/11 02:17:53;;;;;;;10.23;3.95;;;0.10;99.90;;;;;;4876419;29;20470;-81
2022/04/11 02:20:19;;;;;;;8.40;3.42;;;0.10;99.90;;;;;;4859832;29;20092;-81
2022/04/11 02:22:53;;;;;;;7.05;3.20;;;0.00;99.90;;;;;;4860704;29;20160;-81
2022/04/11 02:25:21;;;;;;;8.02;3.15;;;0.10;99.90;;;;;;4875889;29;20059;-81
2022/04/11 02:27:48;;;;;;;11.05;3.97;;;0.10;99.90;;;;;;4861699;29;20139;-81
2022/04/11 02:30:15;;;;;;;6.15;2.63;;;0.00;99.90;;;;;;4858862;29;20139;-81
2022/04/11 02:32:41;;;;;;;7.45;3.60;;;0.00;99.90;;;;;;4860724;29;20094;-81
2022/04/11 02:35:10;;;;;;;7.75;3.30;;;0.00;99.90;;;;;;4874808;29;20417;-82
2022/04/11 02:37:36;;;;;;;8.70;3.05;;;0.00;99.90;;;;;;4860648;29;20497;-82
2022/04/11 02:40:03;;;;;;;6.53;3.97;;;0.00;99.90;;;;;;4859819;29;20059;-82
2022/04/11 02:42:29;;;;;;;9.05;3.38;;;0.00;99.90;;;;;;4860582;29;20049;-81
2022/04/11 02:44:55;;;;;;;11.60;3.55;;;-0.10;99.90;;;;;;4874101;29;20052;-82
2022/04/11 02:47:21;;;;;;;8.77;3.17;;;-0.10;99.90;;;;;;4859767;29;20485;-82
2022/04/11 02:49:47;;;;;;;6.53;3.17;;;-0.10;99.90;;;;;;4875615;29;20128;-81
2022/04/11 02:52:14;;;;;;;7.63;3.47;;;-0.10;99.90;;;;;;4874859;29;20052;-81
2022/04/11 02:54:40;;;;;;;7.25;2.95;;;-0.10;99.90;;;;;;4876214;29;20411;-81
2022/04/11 02:57:06;;;;;;;6.63;3.40;;;-0.10;99.90;;;;;;4875198;29;20548;-82
2022/04/11 02:59:33;;;;;;;5.68;3.03;;;-0.20;99.90;;;;;;4859941;29;20048;-82
2022/04/11 03:02:00;;;;;;;7.25;3.03;;;-0.20;99.90;;;;;;4860629;29;20135;-82
2022/04/11 03:04:26;;;;;;;10.27;3.47;;;-0.20;99.90;;;;;;4861232;29;20044;-81
2022/04/11 03:06:53;;;;;;;7.28;3.03;;;-0.20;99.90;;;;;;4864473;29;20103;-81
2022/04/11 03:09:18;;;;;;;5.38;2.92;;;-0.20;99.90;;;;;;4878886;29;20105;-81
2022/04/11 03:11:44;;;;;;;9.90;3.20;;;-0.20;99.90;;;;;;4863335;29;20479;-82
2022/04/11 03:14:10;;;;;;;8.20;3.00;;;-0.20;99.90;;;;;;4878039;29;20045;-81
2022/04/11 03:16:36;;;;;;;8.73;3.00;;;-0.20;99.90;;;;;;4863785;29;20048;-81
2022/04/11 03:19:02;;;;;;;7.10;2.80;;;-0.20;99.90;;;;;;4862944;29;20044;-82
2022/04/11 03:21:27;;;;;;;10.98;3.42;;;-0.10;99.90;;;;;;4863193;29;20393;-81
2022/04/11 03:23:53;;;;;;;7.88;2.85;;;-0.10;99.90;;;;;;4875589;29;20064;-82
2022/04/11 03:26:19;;;;;;;5.95;2.85;;;-0.10;99.90;;;;;;4860007;29;20071;-83
2022/04/11 03:28:44;;;;;;;5.60;2.47;;;-0.10;99.90;;;;;;4844877;29;20167;-83
2022/04/11 03:31:11;;;;;;;9.07;2.42;;;-0.10;99.90;;;;;;4844401;29;20144;-82
2022/04/11 03:33:36;;;;;;;9.35;2.92;;;-0.10;99.90;;;;;;4844148;29;20398;-81
2022/04/11 03:36:02;;;;;;;5.60;2.40;;;0.00;99.90;;;;;;4875771;29;20041;-81
2022/04/11 03:38:28;;;;;;;7.47;3.45;;;0.00;99.90;;;;;;4860307;29;20247;-82
2022/04/11 03:40:54;;;;;;;5.65;2.70;;;0.00;99.90;;;;;;4874709;29;20056;-81
2022/04/11 03:43:19;;;;;;;13.00;3.92;;;0.10;99.90;;;;;;4875580;29;20124;-81
2022/04/11 03:45:45;;;;;;;6.10;3.20;;;0.10;99.90;;;;;;4844316;29;20072;-82
2022/04/11 03:48:11;;;;;;;6.07;3.25;;;0.20;99.90;;;;;;4858904;29;20065;-81
2022/04/11 03:50:36;;;;;;;7.32;3.20;;;0.20;99.90;;;;;;4860636;29;20056;-81
2022/04/11 03:53:02;;;;;;;10.23;3.50;;;0.30;99.90;;;;;;4859685;29;20171;-81
2022/04/11 03:55:28;;;;;;;8.35;2.67;;;1.00;99.90;;;;;;4843561;29;20063;-81
2022/04/11 03:57:53;;;;;;;7.07;3.15;;;0.40;99.90;;;;;;4867494;29;20056;-81
2022/04/11 04:00:19;;;;;;;8.40;2.97;;;0.50;99.90;;;;;;4861527;29;20049;-81
2022/04/11 04:02:45;;;;;;;6.97;3.22;;;0.50;99.90;;;;;;4878957;29;20441;-82
2022/04/11 04:05:10;;;;;;;7.72;3.47;;;0.50;99.90;;;;;;4877555;29;20053;-82
2022/04/11 04:07:36;;;;;;;7.55;3.28;;;0.60;99.90;;;;;;4878283;29;20060;-81
2022/04/11 04:10:04;;;;;;;7.88;3.05;;;1.00;99.90;;;;;;4862842;29;20135;-82
2022/04/11 04:12:29;;;;;;;7.90;3.03;;;0.70;99.90;;;;;;4863252;29;20285;-81
2022/04/11 04:14:55;;;;;;;9.05;2.72;;;0.70;99.90;;;;;;4861334;29;20047;-81
2022/04/11 04:17:21;;;;;;;9.25;2.92;;;0.70;99.90;;;;;;4877673;29;20052;-81
2022/04/11 04:19:46;;;;;;;8.27;3.33;;;0.80;99.90;;;;;;4862790;29;20060;-81
2022/04/11 04:22:12;;;;;;;9.05;3.60;;;0.80;99.90;;;;;;4877162;29;20052;-81
2022/04/11 04:24:38;;;;;;;8.55;3.60;;;0.90;99.90;;;;;;4878247;29;20073;-81
2022/04/11 04:27:05;;;;;;;7.70;3.55;;;0.90;99.90;;;;;;4878235;29;20131;-81
2022/04/11 04:29:31;;;;;;;6.72;3.13;;;1.40;99.90;;;;;;4861140;29;20045;-81
2022/04/11 04:31:57;;;;;;;6.88;3.03;;;1.00;99.90;;;;;;4862842;29;20055;-82
2022/04/11 04:34:22;;;;;;;7.68;3.35;;;1.00;99.90;;;;;;4859042;29;20048;-80
2022/04/11 04:36:48;;;;;;;7.00;2.97;;;1.00;99.90;;;;;;4861874;29;20044;-81
2022/04/11 04:39:14;;;;;;;7.32;2.95;;;1.00;99.90;;;;;;4877650;29;20058;-81
2022/04/11 04:41:40;;;;;;;7.80;3.47;;;1.10;99.90;;;;;;4861836;29;20507;-81
2022/04/11 04:44:06;;;;;;;5.50;3.28;;;1.10;99.90;;;;;;4860955;29;20304;-81
2022/04/11 04:46:33;;;;;;;8.25;3.83;;;1.10;99.90;;;;;;4877023;29;20044;-80
2022/04/11 04:48:58;;;;;;;10.25;3.80;;;1.10;99.90;;;;;;4859398;29;20052;-82
2022/04/11 04:51:24;;;;;;;9.20;3.25;;;1.20;99.90;;;;;;4873160;29;20045;-81
2022/04/11 04:53:50;;;;;;;8.50;4.40;;;1.20;99.90;;;;;;4843083;29;20056;-81
2022/04/11 04:56:16;;;;;;;10.75;3.22;;;1.20;99.90;;;;;;4874374;29;20051;-81
2022/04/11 04:58:42;;;;;;;8.48;3.17;;;1.70;99.90;;;;;;4843093;29;20044;-81
2022/04/11 05:01:07;;;;;;;9.07;3.60;;;1.20;99.90;;;;;;4858412;29;20053;-80
2022/04/11 05:03:33;;;;;;;6.22;3.20;;;1.20;99.90;;;;;;4843407;29;20097;-81
2022/04/11 05:05:59;;;;;;;10.45;3.90;;;1.20;99.90;;;;;;4858755;29;20379;-81
2022/04/11 05:08:24;;;;;;;8.98;3.85;;;1.20;99.90;;;;;;4843741;29;20044;-81
2022/04/11 05:10:50;;;;;;;11.15;4.45;;;1.30;99.90;;;;;;4842748;29;20057;-81
2022/04/11 05:13:15;;;;;;;7.35;3.60;;;1.30;99.90;;;;;;4874408;29;20048;-81
2022/04/11 05:15:42;;;;;;;8.10;3.83;;;1.30;99.90;;;;;;4858235;29;20081;-81
2022/04/11 05:18:08;;;;;;;7.75;3.50;;;1.40;99.90;;;;;;4841946;29;20117;-79
2022/04/11 05:20:35;;;;;;;8.25;3.53;;;1.50;99.90;;;;;;4858662;29;20078;-80
2022/04/11 05:23:00;;;;;;;13.70;4.22;;;1.40;99.90;;;;;;4857963;29;20045;-80
2022/04/11 05:25:26;;;;;;;7.60;4.30;;;1.50;99.90;;;;;;4872801;29;20135;-81
2022/04/11 05:27:52;;;;;;;8.48;4.32;;;1.50;99.90;;;;;;4861110;29;20048;-81
2022/04/11 05:30:18;;;;;;;9.55;4.28;;;1.60;99.90;;;;;;4875621;29;20047;-81
2022/04/11 05:32:44;;;;;;;13.07;4.90;;;1.60;99.90;;;;;;4876483;29;20052;-81
2022/04/11 05:35:10;;;;;;;10.60;4.35;;;1.70;99.90;;;;;;4860610;29;20051;-81
2022/04/11 05:37:36;;;;;;;7.38;4.30;;;1.70;99.90;;;;;;4861771;29;20108;-81
2022/04/11 05:40:03;;;;;;;7.82;4.22;;;1.80;99.90;;;;;;4860328;29;20096;-81
2022/04/11 05:42:29;;;;;;;8.48;4.43;;;1.80;99.90;;;;;;4876684;29;20068;-81
2022/04/11 05:44:55;;;;;;;9.63;4.40;;;1.90;99.90;;;;;;4860826;29;20056;-81
2022/04/11 05:47:21;;;;;;;9.18;4.00;;;1.90;99.90;;;;;;4875749;29;20048;-81
2022/04/11 05:49:46;;;;;;;13.13;4.68;;;1.90;99.90;;;;;;4861212;29;20075;-81
2022/04/11 05:52:15;;;;;;;7.15;3.63;;;2.00;99.90;;;;;;4861193;29;20516;-81
2022/04/11 05:54:41;;;;;;;5.65;3.17;;;2.80;99.90;;;;;;4860800;29;20040;-81
2022/04/11 05:57:07;;;;;;;9.77;3.60;;;2.20;99.90;;;;;;4892148;29;20501;-82
2022/04/11 05:59:32;;;;;;;7.20;3.00;;;2.20;99.90;;;;;;4857258;29;20041;-82
2022/04/11 06:01:58;;;;;;;7.30;3.28;;;2.60;99.90;;;;;;4857352;29;20053;-82
2022/04/11 06:04:24;;;;;;;8.18;3.33;;;2.20;99.90;;;;;;4872932;29;20082;-82
2022/04/11 06:06:49;;;;;;;10.73;3.40;;;2.20;99.90;;;;;;4857358;29;20045;-82
2022/04/11 06:09:15;;;;;;;7.65;3.33;;;2.30;99.90;;;;;;4857253;29;20060;-82
2022/04/11 06:11:40;;;;;;;9.57;3.38;;;2.30;99.90;;;;;;4857641;29;20052;-82
2022/04/11 06:14:06;;;;;;;8.52;3.35;;;2.40;99.90;;;;;;4856261;29;20113;-82
2022/04/11 06:16:32;;;;;;;9.27;3.55;;;2.40;99.90;;;;;;4857689;29;20049;-81
2022/04/11 06:18:57;;;;;;;14.98;3.25;;;2.50;99.90;;;;;;4857571;29;20501;-81
2022/04/11 06:21:23;;;;;;;14.25;3.10;;;2.60;99.90;;;;;;4856809;29;20049;-81
2022/04/11 06:23:49;;;;;;;7.13;3.00;;;2.60;99.90;;;;;;4841906;29;20092;-81
2022/04/11 06:26:15;;;;;;;13.80;3.22;;;2.90;99.90;;;;;;4857354;29;20128;-81
2022/04/11 06:28:41;;;;;;;12.68;3.40;;;2.80;99.90;;;;;;4857335;29;20109;-82
2022/04/11 06:31:09;;;;;;;6.35;3.20;;;2.90;99.90;;;;;;4857096;29;20108;-81
2022/04/11 06:33:36;;;;;;;7.68;3.28;;;3.00;99.90;;;;;;4857815;29;20055;-82
2022/04/11 06:36:02;;;;;;;9.98;2.90;;;3.10;99.90;;;;;;4841123;29;20049;-82
2022/04/11 06:38:28;;;;;;;14.68;3.45;;;3.20;99.90;;;;;;4873142;29;20482;-81
2022/04/11 06:40:55;;;;;;;7.40;2.75;;;3.30;99.90;;;;;;4841801;29;20406;-81
2022/04/11 06:43:22;;;;;;;8.43;3.05;;;3.40;99.90;;;;;;4872243;29;20613;-82
2022/04/11 06:45:47;;;;;;;9.10;2.90;;;4.00;99.90;;;;;;4856559;29;20045;-82
2022/04/11 06:48:13;;;;;;;7.78;3.08;;;3.60;99.90;;;;;;4855787;29;20052;-82
2022/04/11 06:50:39;;;;;;;9.68;2.97;;;3.70;99.90;;;;;;4875284;29;20057;-82
2022/04/11 06:53:05;;;;;;;6.78;2.70;;;3.90;99.90;;;;;;4875377;29;20049;-81
2022/04/11 06:55:32;;;;;;;6.82;2.53;;;4.00;99.90;;;;;;4860444;29;20041;-82
2022/04/11 06:57:59;;;;;;;11.02;2.78;;;4.10;99.90;;;;;;4875110;29;20132;-82
2022/04/11 07:00:25;;;;;;;12.48;2.63;;;4.20;99.90;;;;;;4859403;29;20057;-81
2022/04/11 07:02:51;;;;;;;8.90;2.88;;;4.30;99.90;;;;;;4860555;29;20051;-82
2022/04/11 07:05:16;;;;;;;15.95;3.10;;;5.50;99.90;;;;;;4859081;29;20052;-81
2022/04/11 07:07:42;;;;;;;5.75;2.28;;;4.50;99.90;;;;;;4875933;29;20067;-83
2022/04/11 07:10:09;;;;;;;8.43;2.70;;;5.60;99.90;;;;;;4874314;29;20088;-82
2022/04/11 07:12:39;;;;;;;7.15;2.65;;;4.70;99.90;;;;;;4874792;29;20083;-81
2022/04/11 07:15:06;;;;;;;8.38;2.45;;;4.80;99.90;;;;;;4864633;29;20052;-83
2022/04/11 07:17:32;;;;;;;8.02;2.72;;;4.90;99.90;;;;;;4883336;29;20087;-82
2022/04/11 07:19:58;;;;;;;11.07;2.70;;;5.00;99.90;;;;;;4883508;29;20087;-82
2022/04/11 07:22:23;;;;;;;8.20;2.10;;;5.10;99.90;;;;;;4886131;29;20137;-83
2022/04/11 07:24:49;;;;;;;7.97;2.42;;;6.00;99.90;;;;;;4874943;29;20556;-82
2022/04/11 07:27:15;;;;;;;6.90;2.08;;;5.40;99.90;;;;;;4882802;29;20051;-82
2022/04/11 07:29:41;;;;;;;5.35;2.03;;;5.50;99.90;;;;;;4890676;29;20147;-82
2022/04/11 07:32:07;;;;;;;8.75;2.17;;;6.50;99.90;;;;;;4887368;29;20069;-82
2022/04/11 07:34:33;;;;;;;7.80;2.25;;;5.70;99.90;;;;;;4889733;29;20409;-82
2022/04/11 07:36:59;;;;;;;4.03;1.70;;;5.90;99.90;;;;;;4868889;29;20112;-82
2022/04/11 07:39:24;;;;;;;5.88;2.08;;;6.60;99.90;;;;;;4885048;29;20045;-82
2022/04/11 07:41:53;;;;;;;8.32;2.20;;;6.10;99.90;;;;;;4868017;29;20567;-82
2022/04/11 07:44:19;;;;;;;11.15;1.77;;;6.70;99.90;;;;;;4858283;29;20452;-81
2022/04/11 07:46:45;;;;;;;10.23;2.10;;;6.50;99.90;;;;;;4856606;29;20409;-82
2022/04/11 07:49:16;;;;;;;11.80;2.53;;;6.40;99.90;;;;;;4857818;29;20105;-81
2022/04/11 07:51:42;;;;;;;8.65;2.40;;;6.10;99.90;;;;;;4874864;29;20048;-81
2022/04/11 07:54:08;;;;;;;6.43;2.03;;;6.50;99.90;;;;;;4874479;29;20101;-82
2022/04/11 07:56:33;;;;;;;7.47;1.90;;;7.40;99.90;;;;;;4877593;29;20056;-80
2022/04/11 07:58:59;;;;;;;5.30;1.98;;;6.70;99.90;;;;;;4893430;29;20052;-81
2022/04/11 08:01:25;;;;;;;9.70;2.25;;;6.80;99.90;;;;;;4893749;29;20047;-81
2022/04/11 08:03:50;;;;;;;8.30;2.28;;;6.80;99.90;;;;;;4885698;29;20446;-81
2022/04/11 08:06:17;;;;;;;8.07;1.80;;;6.90;99.90;;;;;;4884989;29;20064;-81
2022/04/11 08:08:46;;;;;;;6.65;1.67;;;7.00;99.90;;;;;;4868154;29;20040;-81
2022/04/11 08:11:13;;;;;;;7.30;1.80;;;7.10;99.90;;;;;;4864039;29;20104;-81
2022/04/11 08:13:39;;;;;;;8.07;1.88;;;7.70;99.90;;;;;;4884241;29;20548;-81
2022/04/11 08:16:05;;;;;;;8.25;1.50;;;7.20;99.90;;;;;;4872276;29;20045;-81
2022/04/11 08:18:31;;;;;;;7.68;1.60;;;7.20;99.90;;;;;;4862823;29;20052;-81
2022/04/11 08:20:56;;;;;;;7.70;1.77;;;7.20;99.90;;;;;;4876237;29;20052;-82
2022/04/11 08:23:22;;;;;;;6.05;1.40;;;7.30;99.90;;;;;;4877018;29;20501;-81
2022/04/11 08:25:49;;;;;;;11.10;2.20;;;7.80;99.90;;;;;;4891764;29;20048;-82
2022/04/11 08:28:15;;;;;;;5.82;1.80;;;7.30;99.90;;;;;;4872672;29;20048;-82
2022/04/11 08:30:41;;;;;;;8.27;2.15;;;7.70;99.90;;;;;;4892649;29;20040;-82
2022/04/11 08:33:07;;;;;;;6.75;1.30;;;8.10;99.90;;;;;;4885237;29;20044;-82
2022/04/11 08:35:33;;;;;;;5.72;1.88;;;7.90;99.90;;;;;;4892167;29;20484;-82
2022/04/11 08:37:59;;;;;;;6.78;1.80;;;7.50;99.90;;;;;;4866574;29;20058;-81
2022/04/11 08:40:24;;;;;;;9.77;1.98;;;8.30;99.90;;;;;;4870961;29;20048;-81
2022/04/11 08:42:51;;;;;;;7.90;1.75;;;8.40;99.90;;;;;;4889105;29;20100;-81
2022/04/11 08:45:20;;;;;;;10.50;2.30;;;8.50;99.90;;;;;;4868547;29;20111;-81
2022/04/11 08:47:48;;;;;;;4.78;1.80;;;8.10;99.90;;;;;;4865337;29;20057;-82
2022/04/11 08:50:14;;;;;;;7.85;1.73;;;8.60;99.90;;;;;;4881457;29;20049;-82
2022/04/11 08:52:41;;;;;;;11.25;1.52;;;8.10;99.90;;;;;;4865943;29;20135;-82
2022/04/11 08:55:07;;;;;;;8.88;1.88;;;8.20;99.90;;;;;;4863213;29;20051;-82
2022/04/11 08:57:36;;;;;;;6.97;2.17;;;8.30;99.90;;;;;;4870019;29;20056;-81
2022/04/11 09:00:07;;;;;;;6.72;1.75;;;8.60;99.90;;;;;;4884198;29;20060;-81
2022/04/11 09:02:34;;;;;;;9.23;1.77;;;8.50;99.90;;;;;;4865868;29;20052;-82
2022/04/11 09:05:00;;;;;;;6.75;1.73;;;8.80;99.90;;;;;;4864241;29;20397;-81
2022/04/11 09:07:26;;;;;;;6.28;2.00;;;8.80;99.90;;;;;;4889393;29;20072;-81
2022/04/11 09:09:52;;;;;;;7.50;1.95;;;9.10;99.90;;;;;;4873281;29;20107;-80
2022/04/11 09:12:19;;;;;;;5.60;1.90;;;9.00;99.90;;;;;;4862408;29;20059;-80
2022/04/11 09:14:55;;;;;;;8.77;2.08;;;9.00;99.90;;;;;;4876675;29;20049;-81
2022/04/11 09:17:24;;;;;;;8.15;1.50;;;9.90;99.90;;;;;;4876406;29;20060;-81
2022/04/11 09:20:06;;;;;;;8.27;2.28;;;9.40;99.90;;;;;;4877083;29;20060;-81
2022/04/11 09:22:31;;;;;;;8.60;1.70;;;9.50;99.90;;;;;;4892550;29;20059;-81
2022/04/11 09:25:07;;;;;;;9.43;1.88;;;9.70;99.90;;;;;;4860954;29;20057;-81
2022/04/11 09:27:33;;;;;;;8.65;1.80;;;9.50;99.90;;;;;;4892685;29;20059;-81
2022/04/11 09:29:59;;;;;;;5.60;1.42;;;9.60;99.90;;;;;;4861404;29;20080;-81
2022/04/11 09:32:25;;;;;;;7.70;1.33;;;9.60;99.90;;;;;;4860758;29;20072;-80
2022/04/11 09:34:54;;;;;;;6.65;1.70;;;9.60;99.90;;;;;;4893211;29;20439;-80
2022/04/11 09:37:20;;;;;;;7.15;1.50;;;9.60;99.90;;;;;;4879231;29;20466;-82
2022/04/11 09:39:56;;;;;;;7.38;1.83;;;9.60;99.90;;;;;;4885376;29;20509;-82
2022/04/11 09:42:32;;;;;;;8.20;1.70;;;9.60;99.90;;;;;;4880754;29;20052;-79
2022/04/11 09:45:00;;;;;;;6.03;1.50;;;9.70;99.90;;;;;;4892005;29;20548;-79
2022/04/11 09:47:26;;;;;;;6.45;1.38;;;9.80;99.90;;;;;;4865432;29;20060;-79
2022/04/11 09:49:52;;;;;;;6.25;1.38;;;9.90;99.90;;;;;;4875395;29;20510;-80
2022/04/11 09:52:18;;;;;;;6.47;1.40;;;10.50;99.90;;;;;;4889317;29;20096;-81
2022/04/11 09:54:46;;;;;;;5.35;1.70;;;10.20;99.90;;;;;;4881538;29;20044;-81
2022/04/11 09:57:14;;;;;;;7.53;1.30;;;10.10;99.90;;;;;;4891498;29;20101;-81
2022/04/11 09:59:40;;;;;;;6.03;1.30;;;10.20;99.90;;;;;;4878093;29;20052;-82
2022/04/11 10:02:10;;;;;;;7.32;1.85;;;11.00;99.90;;;;;;4877239;29;20567;-82
2022/04/11 10:04:36;;;;;;;3.92;1.70;;;10.40;99.90;;;;;;4871664;29;20084;-82
2022/04/11 10:07:02;;;;;;;7.93;1.42;;;11.10;99.90;;;;;;4860209;29;20045;-82
2022/04/11 10:09:28;;;;;;;5.43;1.83;;;10.50;99.90;;;;;;4876012;29;20052;-81
2022/04/11 10:12:01;;;;;;;6.63;1.30;;;11.10;99.90;;;;;;4862166;29;20048;-82
2022/04/11 10:14:27;;;;;;;6.13;1.23;;;11.00;99.90;;;;;;4859097;29;20117;-82
2022/04/11 10:16:56;;;;;;;3.63;1.27;;;10.70;99.90;;;;;;4882463;29;20460;-81
2022/04/11 10:19:33;;;;;;;8.32;1.60;;;10.70;99.90;;;;;;4866766;29;20420;-82
2022/04/11 10:22:04;;;;;;;9.50;1.48;;;10.70;99.90;;;;;;4881751;29;20386;-83
2022/04/11 10:24:34;;;;;;;5.40;1.63;;;10.80;99.90;;;;;;4863348;29;20601;-82
2022/04/11 10:27:20;;;;;;;5.43;1.50;;;10.90;99.90;;;;;;4863156;29;20048;-82
2022/04/11 10:29:49;;;;;;;8.55;1.65;;;11.00;99.90;;;;;;4866062;29;20048;-82
2022/04/11 10:32:23;;;;;;;6.28;1.30;;;11.00;99.90;;;;;;4883022;29;20096;-82
2022/04/11 10:34:55;;;;;;;5.43;1.23;;;11.30;99.90;;;;;;4878141;29;20336;-81
2022/04/11 10:37:49;;;;;;;5.47;1.55;;;11.20;99.90;;;;;;4875668;29;20839;-82
2022/04/11 10:40:15;;;;;;;5.57;1.42;;;11.20;99.90;;;;;;4863734;29;20056;-82
2022/04/11 10:43:01;;;;;;;6.53;1.50;;;11.20;99.90;;;;;;4874825;29;20053;-82
2022/04/11 10:45:35;;;;;;;6.93;1.40;;;11.30;99.90;;;;;;4861309;29;20548;-82
2022/04/11 10:48:03;;;;;;;3.78;1.20;;;11.30;99.90;;;;;;4866406;29;20093;-82
2022/04/11 10:50:35;;;;;;;5.32;1.63;;;11.40;99.90;;;;;;4875987;29;20064;-82
2022/04/11 10:53:12;;;;;;;5.43;1.17;;;11.50;99.90;;;;;;4875774;29;20057;-83
2022/04/11 10:55:57;;;;;;;7.05;1.55;;;11.50;99.90;;;;;;4882131;29;20041;-83
2022/04/11 10:58:40;;;;;;;6.03;1.27;;;11.40;99.90;;;;;;4869507;29;20053;-83
2022/04/11 11:01:06;;;;;;;4.75;1.30;;;11.70;99.90;;;;;;4866442;29;20041;-83
2022/04/11 11:03:32;;;;;;;3.75;1.10;;;11.60;99.90;;;;;;4876391;29;20097;-86
2022/04/11 11:06:16;;;;;;;7.93;1.67;;;11.80;99.90;;;;;;4888530;29;20532;-87
2022/04/11 11:08:42;;;;;;;8.70;1.85;;;11.80;99.90;;;;;;4877161;29;20112;-87
2022/04/11 11:11:22;;;;;;;8.38;1.73;;;11.90;99.90;;;;;;4887945;29;20056;-86
2022/04/11 11:13:49;;;;;;;5.55;1.50;;;11.90;99.90;;;;;;4870427;29;20520;-86
2022/04/11 11:16:14;;;;;;;4.30;1.52;;;12.10;99.90;;;;;;4877762;29;20040;-86
2022/04/11 11:19:04;;;;;;;4.63;1.52;;;11.90;99.90;;;;;;4891486;29;20072;-87
2022/04/11 11:21:31;;;;;;;8.13;1.90;;;12.00;99.90;;;;;;4886077;29;20056;-85
2022/04/11 11:24:03;;;;;;;6.32;1.40;;;12.10;99.90;;;;;;4866881;29;20045;-85
2022/04/11 11:26:38;;;;;;;4.32;1.60;;;12.20;99.90;;;;;;4889235;29;20062;-88
2022/04/11 11:29:15;;;;;;;7.72;1.70;;;12.20;99.90;;;;;;4878841;29;20453;-85
2022/04/11 11:31:40;;;;;;;7.18;1.77;;;12.30;99.90;;;;;;4865767;29;20052;-85
2022/04/11 11:34:12;;;;;;;6.00;1.90;;;12.30;99.90;;;;;;4883712;29;20409;-84
2022/04/11 11:36:38;;;;;;;7.68;1.88;;;12.40;99.90;;;;;;4868572;29;20048;-84
2022/04/11 11:39:18;;;;;;;5.40;1.98;;;12.50;99.90;;;;;;4893296;29;20088;-84
2022/04/11 11:41:50;;;;;;;6.15;1.80;;;12.40;99.90;;;;;;4894989;29;20040;-85
2022/04/11 11:44:17;;;;;;;5.35;1.65;;;12.50;99.90;;;;;;4878059;29;20561;-82
2022/04/11 11:46:49;;;;;;;6.03;2.28;;;12.50;99.90;;;;;;4894764;29;20100;-84
2022/04/11 11:49:16;;;;;;;7.00;2.00;;;12.60;99.90;;;;;;4878368;29;20059;-83
2022/04/11 11:51:42;;;;;;;5.03;1.73;;;12.60;99.90;;;;;;4894174;29;20048;-84
2022/04/11 11:54:07;;;;;;;7.65;2.15;;;12.70;99.90;;;;;;4894264;29;20049;-84
2022/04/11 11:56:43;;;;;;;5.13;1.90;;;12.60;99.90;;;;;;4894542;29;20108;-83
2022/04/11 11:59:10;;;;;;;6.55;1.90;;;12.60;99.90;;;;;;4876395;29;20059;-83
2022/04/11 12:01:37;;;;;;;5.68;1.88;;;12.50;99.90;;;;;;4894846;29;20100;-83
2022/04/11 12:04:19;;;;;;;5.72;2.17;;;12.50;99.90;;;;;;4878703;29;20139;-84
2022/04/11 12:06:51;;;;;;;7.50;2.05;;;12.60;99.90;;;;;;4878528;29;20052;-84
2022/04/11 12:09:17;;;;;;;6.75;2.13;;;12.60;99.90;;;;;;4878345;29;20048;-83
2022/04/11 12:11:43;;;;;;;8.75;2.03;;;12.60;99.90;;;;;;4879104;29;20108;-84
2022/04/11 12:14:09;;;;;;;4.85;1.98;;;12.60;99.90;;;;;;4865859;29;20553;-83
2022/04/11 12:16:38;;;;;;;5.13;2.10;;;12.70;99.90;;;;;;4860324;29;20105;-83
2022/04/11 12:19:06;;;;;;;6.97;2.20;;;12.70;99.50;;;;;;4859329;29;20056;-83
2022/04/11 12:21:32;;;;;;;7.70;2.40;;;12.80;99.90;;;;;;4859516;29;20057;-83
2022/04/11 12:23:58;;;;;;;9.07;2.50;;;12.90;99.90;;;;;;4859954;29;20037;-83
2022/04/11 12:26:32;;;;;;;6.22;2.28;;;12.90;99.90;;;;;;4844546;29;20505;-83
2022/04/11 12:29:01;;;;;;;4.93;2.17;;;13.00;99.20;;;;;;4858736;29;20045;-83
2022/04/11 12:31:27;;;;;;;5.53;2.08;;;13.00;97.90;;;;;;4844678;29;20091;-83
2022/04/11 12:33:53;;;;;;;5.85;2.17;;;13.00;98.90;;;;;;4843401;29;20076;-83
2022/04/11 12:36:22;;;;;;;6.95;2.15;;;13.00;98.70;;;;;;4859393;29;20076;-83
2022/04/11 12:38:50;;;;;;;6.43;2.55;;;13.10;99.40;;;;;;4844201;29;20049;-83
2022/04/11 12:41:22;;;;;;;9.55;2.42;;;13.10;99.90;;;;;;4858671;29;20133;-83
2022/04/11 12:43:59;;;;;;;6.45;2.20;;;13.20;98.40;;;;;;4858763;29;20049;-84
2022/04/11 12:46:25;;;;;;;6.82;2.60;;;13.10;99.20;;;;;;4843783;29;20042;-83
2022/04/11 12:48:56;;;;;;;9.35;2.60;;;13.30;99.90;;;;;;4855717;29;20065;-84
2022/04/11 12:51:22;;;;;;;8.73;2.67;;;13.40;98.00;;;;;;4840728;29;20061;-83
2022/04/11 12:53:48;;;;;;;8.63;2.35;;;13.40;97.20;;;;;;4840979;29;20136;-83